Time;durP1;ratioP1;P1;durP2;ratioP2;P2;SDS_P1;SDS_P2;PMS_P1;PMS_P2;Temp;Humidity;BMP_temperature;BMP_pressure;BME280_temperature;BME280_humidity;BME280_pressure;Samples;Min_cycle;Max_cycle;Signal;HPM_P1;HPM_P2
2023/08/01 00:00:29;;;;;;;5.10;4.47;;;17.80;99.90;;;;;;4986601;28;20439;-65
2023/08/01 00:02:58;;;;;;;6.80;4.27;;;17.80;99.90;;;;;;4984924;28;20466;-66
2023/08/01 00:05:26;;;;;;;6.73;4.17;;;17.70;99.90;;;;;;4978029;28;20542;-65
2023/08/01 00:07:54;;;;;;;6.80;4.40;;;17.60;99.90;;;;;;4978254;28;20873;-66
2023/08/01 00:10:22;;;;;;;5.30;4.17;;;17.60;99.90;;;;;;4969830;28;20832;-65
2023/08/01 00:12:50;;;;;;;6.20;4.20;;;17.60;99.90;;;;;;4969766;28;20455;-65
2023/08/01 00:15:18;;;;;;;4.70;4.30;;;17.70;99.90;;;;;;4971227;28;20523;-65
2023/08/01 00:17:48;;;;;;;5.80;4.30;;;17.70;99.90;;;;;;4970963;28;20492;-65
2023/08/01 00:20:16;;;;;;;6.93;5.10;;;17.60;99.90;;;;;;4971300;28;20543;-66
2023/08/01 00:22:44;;;;;;;5.93;4.40;;;17.50;99.90;;;;;;4983770;28;20478;-66
2023/08/01 00:25:12;;;;;;;6.20;4.33;;;17.50;99.90;;;;;;4990092;28;20486;-64
2023/08/01 00:27:40;;;;;;;8.63;5.73;;;17.50;99.90;;;;;;4990487;28;20450;-67
2023/08/01 00:30:09;;;;;;;7.67;4.73;;;17.30;99.90;;;;;;4988997;28;20451;-66
2023/08/01 00:32:38;;;;;;;5.13;4.50;;;17.30;99.90;;;;;;4989696;28;20438;-67
2023/08/01 00:35:08;;;;;;;6.03;4.23;;;17.40;99.90;;;;;;4990390;28;20434;-65
2023/08/01 00:37:36;;;;;;;8.70;4.80;;;17.40;99.90;;;;;;4987535;28;20463;-65
2023/08/01 00:40:05;;;;;;;5.77;4.50;;;17.30;99.90;;;;;;4977170;28;20542;-65
2023/08/01 00:42:33;;;;;;;5.90;4.80;;;17.30;99.90;;;;;;4968504;28;20444;-66
2023/08/01 00:45:01;;;;;;;8.13;5.20;;;17.30;99.90;;;;;;4970359;28;20515;-65
2023/08/01 00:47:29;;;;;;;9.70;5.90;;;17.30;99.90;;;;;;4970007;28;20938;-66
2023/08/01 00:49:57;;;;;;;8.90;5.43;;;17.30;99.90;;;;;;4987912;28;20579;-68
2023/08/01 00:52:27;;;;;;;9.40;5.10;;;17.30;99.90;;;;;;5001874;28;20457;-64
2023/08/01 00:54:56;;;;;;;6.10;5.50;;;17.40;99.90;;;;;;4996192;28;20476;-65
2023/08/01 00:57:24;;;;;;;6.27;5.13;;;17.40;99.90;;;;;;4990851;28;20451;-64
2023/08/01 00:59:52;;;;;;;7.20;5.73;;;17.40;99.90;;;;;;4990348;28;20449;-64
2023/08/01 01:02:20;;;;;;;6.10;5.57;;;17.40;99.90;;;;;;4990631;28;20451;-64
2023/08/01 01:04:48;;;;;;;8.73;5.40;;;17.40;99.90;;;;;;4990857;28;20469;-65
2023/08/01 01:07:18;;;;;;;6.53;5.90;;;17.40;99.90;;;;;;4990534;28;20501;-65
2023/08/01 01:09:47;;;;;;;7.07;5.90;;;17.40;99.90;;;;;;4990420;28;20493;-64
2023/08/01 01:12:15;;;;;;;5.90;5.00;;;17.50;99.90;;;;;;4988047;28;20457;-63
2023/08/01 01:14:43;;;;;;;6.20;4.50;;;17.50;99.90;;;;;;4989273;28;20475;-66
2023/08/01 01:17:11;;;;;;;6.17;4.93;;;17.50;99.90;;;;;;4990102;28;20439;-64
2023/08/01 01:19:39;;;;;;;5.97;5.37;;;17.30;99.90;;;;;;4990268;28;21059;-65
2023/08/01 01:22:11;;;;;;;8.57;4.73;;;17.30;99.90;;;;;;4988671;28;20453;-65
2023/08/01 01:24:41;;;;;;;7.20;5.03;;;17.30;99.90;;;;;;4989907;28;20471;-65
2023/08/01 01:27:10;;;;;;;7.27;4.70;;;17.30;99.90;;;;;;4983821;28;20494;-66
2023/08/01 01:29:39;;;;;;;7.70;5.50;;;17.30;99.90;;;;;;4972310;28;20542;-63
2023/08/01 01:32:08;;;;;;;6.43;5.83;;;17.30;99.90;;;;;;4971496;28;20440;-66
2023/08/01 01:34:36;;;;;;;7.50;4.87;;;17.30;99.90;;;;;;4970671;28;20461;-65
2023/08/01 01:37:05;;;;;;;7.13;5.80;;;17.30;99.90;;;;;;4971816;28;20454;-65
2023/08/01 01:39:34;;;;;;;7.00;4.93;;;17.30;99.90;;;;;;4971246;28;20986;-65
2023/08/01 01:42:02;;;;;;;6.60;4.23;;;17.30;99.90;;;;;;4970783;28;21086;-67
2023/08/01 01:44:31;;;;;;;5.90;4.57;;;17.30;99.90;;;;;;4983930;28;20582;-66
2023/08/01 01:46:59;;;;;;;7.57;5.53;;;17.30;99.90;;;;;;4990804;28;20478;-64
2023/08/01 01:49:27;;;;;;;5.43;4.90;;;17.20;99.90;;;;;;4990604;28;20452;-65
2023/08/01 01:51:55;;;;;;;6.57;5.50;;;17.20;99.90;;;;;;4988458;28;20949;-65
2023/08/01 01:54:25;;;;;;;6.57;4.87;;;17.20;99.90;;;;;;4988679;28;20652;-65
2023/08/01 01:56:54;;;;;;;7.40;5.57;;;17.20;99.90;;;;;;4989873;28;20999;-65
2023/08/01 01:59:23;;;;;;;6.60;5.13;;;17.10;99.90;;;;;;4990182;28;20509;-66
2023/08/01 02:01:51;;;;;;;6.50;5.43;;;17.20;99.90;;;;;;4990071;28;20474;-65
2023/08/01 02:04:19;;;;;;;5.57;5.07;;;17.10;99.90;;;;;;4988974;28;20469;-65
2023/08/01 02:06:47;;;;;;;6.50;5.30;;;17.00;99.90;;;;;;4970370;28;20489;-67
2023/08/01 02:09:15;;;;;;;6.37;4.87;;;16.90;99.90;;;;;;4969977;28;20854;-66
2023/08/01 02:11:43;;;;;;;6.20;5.60;;;17.00;99.90;;;;;;4969734;28;20479;-64
2023/08/01 02:14:13;;;;;;;5.90;5.37;;;17.10;99.90;;;;;;4969036;28;20459;-65
2023/08/01 02:16:41;;;;;;;9.50;4.50;;;17.10;99.90;;;;;;4970544;28;20534;-64
2023/08/01 02:19:10;;;;;;;6.20;5.60;;;17.10;99.90;;;;;;4970746;28;20450;-65
2023/08/01 02:21:38;;;;;;;7.93;5.50;;;17.20;99.90;;;;;;4979609;28;20446;-63
2023/08/01 02:24:06;;;;;;;14.90;6.67;;;17.20;99.90;;;;;;4988858;28;20474;-65
2023/08/01 02:26:33;;;;;;;7.30;4.43;;;17.20;99.90;;;;;;4989442;28;20521;-65
2023/08/01 02:29:01;;;;;;;6.50;4.93;;;17.20;99.90;;;;;;4990077;28;20890;-66
2023/08/01 02:31:31;;;;;;;8.93;6.50;;;17.20;99.90;;;;;;4989561;28;20446;-66
2023/08/01 02:33:59;;;;;;;11.43;6.63;;;17.10;99.90;;;;;;4987282;28;20521;-65
2023/08/01 02:36:27;;;;;;;6.67;5.60;;;17.10;99.90;;;;;;4989770;28;20841;-64
2023/08/01 02:38:55;;;;;;;8.20;5.67;;;17.20;99.90;;;;;;4970335;28;20455;-65
2023/08/01 02:41:23;;;;;;;7.40;5.70;;;17.20;99.90;;;;;;4970332;28;20532;-65
2023/08/01 02:43:51;;;;;;;6.30;5.70;;;17.20;99.90;;;;;;4968550;28;20463;-65
2023/08/01 02:46:19;;;;;;;9.47;5.50;;;17.10;99.90;;;;;;4969992;28;20483;-66
2023/08/01 02:48:49;;;;;;;13.00;5.83;;;17.10;99.90;;;;;;4969729;28;20447;-65
2023/08/01 02:51:17;;;;;;;7.10;5.40;;;17.10;99.90;;;;;;4969718;28;21171;-67
2023/08/01 02:53:45;;;;;;;7.73;4.93;;;17.00;99.90;;;;;;4968737;28;20495;-65
2023/08/01 02:56:13;;;;;;;6.77;5.70;;;17.00;99.90;;;;;;4969210;28;20527;-65
2023/08/01 02:58:42;;;;;;;6.27;5.47;;;17.00;99.90;;;;;;4969956;28;20889;-65
2023/08/01 03:01:10;;;;;;;8.23;6.33;;;17.00;99.90;;;;;;4982595;28;20501;-65
2023/08/01 03:03:38;;;;;;;6.60;5.47;;;17.00;99.90;;;;;;4987723;28;21156;-65
2023/08/01 03:06:08;;;;;;;8.63;5.27;;;17.10;99.90;;;;;;4987654;28;20549;-64
2023/08/01 03:08:35;;;;;;;6.20;5.60;;;17.20;99.90;;;;;;4988607;28;20936;-65
2023/08/01 03:11:03;;;;;;;8.00;5.23;;;17.20;99.90;;;;;;4974790;28;20475;-65
2023/08/01 03:13:32;;;;;;;5.90;5.30;;;17.30;99.90;;;;;;4967627;28;20558;-64
2023/08/01 03:15:59;;;;;;;5.70;4.90;;;17.40;99.90;;;;;;4968720;28;20795;-66
2023/08/01 03:18:27;;;;;;;6.30;5.70;;;17.30;99.90;;;;;;4969490;28;20443;-65
2023/08/01 03:20:55;;;;;;;8.77;5.40;;;17.20;99.90;;;;;;4969553;28;20475;-65
2023/08/01 03:23:25;;;;;;;6.47;5.77;;;17.20;99.90;;;;;;4968172;28;20827;-66
2023/08/01 03:25:53;;;;;;;6.00;5.30;;;17.20;99.90;;;;;;4969123;28;20443;-66
2023/08/01 03:28:21;;;;;;;7.47;6.77;;;17.20;99.90;;;;;;4969732;28;21017;-66
2023/08/01 03:30:50;;;;;;;6.30;5.70;;;17.20;99.90;;;;;;4968910;28;20448;-67
2023/08/01 03:33:18;;;;;;;5.67;4.80;;;17.30;99.90;;;;;;4966864;28;21039;-64
2023/08/01 03:35:46;;;;;;;6.43;5.53;;;17.30;99.90;;;;;;4969165;28;20443;-64
2023/08/01 03:38:14;;;;;;;6.10;5.50;;;17.30;99.90;;;;;;4969307;28;20529;-63
2023/08/01 03:40:43;;;;;;;6.10;5.00;;;17.30;99.90;;;;;;4969646;28;20444;-63
2023/08/01 03:43:11;;;;;;;8.60;5.53;;;17.20;99.90;;;;;;4968982;28;20475;-65
2023/08/01 03:45:40;;;;;;;7.27;5.57;;;17.20;99.90;;;;;;4968376;28;20490;-66
2023/08/01 03:48:08;;;;;;;7.43;5.93;;;17.20;99.90;;;;;;4969248;28;20856;-66
2023/08/01 03:50:36;;;;;;;5.43;4.93;;;17.30;99.90;;;;;;4971700;28;20450;-65
2023/08/01 03:53:04;;;;;;;8.23;5.10;;;17.20;99.90;;;;;;4987131;28;20516;-66
2023/08/01 03:55:32;;;;;;;5.10;4.20;;;17.30;99.90;;;;;;4988092;28;20446;-66
2023/08/01 03:58:01;;;;;;;9.60;5.37;;;17.30;99.90;;;;;;4988144;28;20502;-66
2023/08/01 04:00:32;;;;;;;8.00;5.63;;;17.30;99.90;;;;;;4988133;28;20888;-64
2023/08/01 04:03:01;;;;;;;5.70;4.70;;;17.30;99.90;;;;;;4986670;28;20465;-64
2023/08/01 04:05:29;;;;;;;5.63;4.33;;;17.30;99.90;;;;;;4977358;28;20476;-65
2023/08/01 04:07:58;;;;;;;10.17;4.90;;;17.30;99.90;;;;;;4967787;28;21065;-65
2023/08/01 04:10:26;;;;;;;6.60;4.30;;;17.40;99.90;;;;;;4968325;28;20518;-64
2023/08/01 04:12:54;;;;;;;7.23;4.27;;;17.50;99.90;;;;;;4967458;28;20553;-64
2023/08/01 04:15:23;;;;;;;6.97;5.37;;;17.50;99.90;;;;;;4968649;28;20444;-65
2023/08/01 04:17:51;;;;;;;5.73;4.23;;;17.50;99.90;;;;;;4966979;28;20440;-66
2023/08/01 04:20:19;;;;;;;5.47;4.83;;;17.50;99.90;;;;;;4966822;28;20479;-66
2023/08/01 04:22:47;;;;;;;4.90;4.50;;;17.50;99.90;;;;;;4967436;28;21005;-66
2023/08/01 04:25:15;;;;;;;4.90;4.27;;;17.50;99.90;;;;;;4967962;28;20887;-64
2023/08/01 04:27:43;;;;;;;5.73;3.90;;;17.50;99.90;;;;;;4967893;28;20485;-65
2023/08/01 04:30:12;;;;;;;6.20;4.60;;;17.50;99.90;;;;;;4967914;28;20923;-65
2023/08/01 04:32:41;;;;;;;5.93;3.97;;;17.50;99.90;;;;;;4966101;28;21017;-66
2023/08/01 04:35:09;;;;;;;6.00;4.13;;;17.50;99.90;;;;;;4968877;28;20451;-64
2023/08/01 04:37:37;;;;;;;5.70;4.30;;;17.60;99.90;;;;;;4970043;28;20481;-65
2023/08/01 04:40:07;;;;;;;5.63;4.00;;;17.70;99.90;;;;;;4968307;28;20446;-65
2023/08/01 04:42:35;;;;;;;4.77;4.27;;;17.70;99.90;;;;;;4967683;28;20447;-65
2023/08/01 04:45:03;;;;;;;4.53;4.10;;;17.70;99.90;;;;;;4968134;28;20494;-65
2023/08/01 04:47:31;;;;;;;6.83;3.73;;;17.60;99.90;;;;;;4968418;28;20468;-66
2023/08/01 04:50:00;;;;;;;4.10;3.50;;;17.60;99.90;;;;;;4967936;28;20447;-66
2023/08/01 04:52:28;;;;;;;7.03;4.80;;;17.70;99.90;;;;;;4967034;28;20486;-67
2023/08/01 04:54:57;;;;;;;4.07;3.47;;;17.90;99.90;;;;;;4980203;28;20557;-66
2023/08/01 04:57:24;;;;;;;5.57;3.50;;;18.00;99.90;;;;;;4990338;28;20945;-64
2023/08/01 04:59:52;;;;;;;4.90;3.63;;;18.10;99.90;;;;;;4990460;28;20470;-65
2023/08/01 05:02:20;;;;;;;3.80;3.43;;;18.30;99.90;;;;;;4990045;28;21009;-65
2023/08/01 05:04:48;;;;;;;4.63;3.60;;;18.20;99.90;;;;;;4990621;28;20463;-64
2023/08/01 05:07:18;;;;;;;4.93;3.17;;;18.30;99.90;;;;;;4989803;28;21039;-65
2023/08/01 05:09:46;;;;;;;4.37;3.73;;;18.40;99.90;;;;;;4989727;28;20474;-66
2023/08/01 05:12:14;;;;;;;3.50;3.13;;;18.50;99.90;;;;;;4970918;28;20463;-66
2023/08/01 05:14:42;;;;;;;4.73;3.33;;;18.60;99.90;;;;;;4970769;28;21016;-66
2023/08/01 05:17:10;;;;;;;3.33;2.80;;;18.40;99.90;;;;;;4971230;28;20482;-67
2023/08/01 05:19:38;;;;;;;5.27;3.37;;;18.30;99.90;;;;;;4971348;28;20498;-67
2023/08/01 05:22:06;;;;;;;5.60;3.20;;;18.30;99.90;;;;;;4970989;28;20451;-66
2023/08/01 05:24:36;;;;;;;8.67;2.53;;;18.40;99.90;;;;;;4970472;28;20499;-66
2023/08/01 05:27:04;;;;;;;3.60;2.87;;;18.40;99.90;;;;;;4972209;28;20530;-65
2023/08/01 05:29:32;;;;;;;2.87;2.43;;;18.40;99.90;;;;;;4971555;28;20825;-67
2023/08/01 05:32:00;;;;;;;5.50;3.10;;;18.40;99.90;;;;;;4970834;28;20481;-66
2023/08/01 05:34:28;;;;;;;5.03;2.90;;;18.40;99.90;;;;;;4970386;28;21022;-66
2023/08/01 05:36:56;;;;;;;4.23;3.00;;;18.40;99.90;;;;;;4971393;28;21098;-65
2023/08/01 05:39:24;;;;;;;3.83;2.90;;;18.40;99.90;;;;;;4970590;28;20447;-65
2023/08/01 05:41:54;;;;;;;5.27;2.80;;;18.50;99.90;;;;;;4971691;28;20451;-66
2023/08/01 05:44:22;;;;;;;3.80;2.80;;;18.50;99.90;;;;;;4970494;28;20881;-65
2023/08/01 05:46:49;;;;;;;4.40;3.67;;;18.50;99.90;;;;;;4971471;28;20451;-65
2023/08/01 05:49:18;;;;;;;3.00;2.63;;;18.60;99.90;;;;;;4970507;28;20495;-64
2023/08/01 05:51:46;;;;;;;3.80;2.90;;;18.60;99.90;;;;;;4981924;28;20455;-65
2023/08/01 05:54:14;;;;;;;4.20;2.70;;;18.70;99.90;;;;;;4988872;28;20467;-65
2023/08/01 05:56:42;;;;;;;3.07;2.60;;;18.70;99.90;;;;;;4989955;28;20941;-65
2023/08/01 05:59:12;;;;;;;3.80;3.30;;;18.70;99.90;;;;;;4990314;28;20443;-65
2023/08/01 06:01:40;;;;;;;4.17;3.23;;;18.70;99.90;;;;;;4990022;28;21173;-65
2023/08/01 06:04:08;;;;;;;5.80;3.70;;;18.70;99.90;;;;;;4988930;28;20467;-65
2023/08/01 06:06:36;;;;;;;4.57;3.40;;;18.70;99.90;;;;;;4971338;28;20510;-66
2023/08/01 06:09:04;;;;;;;6.80;4.60;;;18.70;99.90;;;;;;4970353;28;20878;-66
2023/08/01 06:11:33;;;;;;;4.27;3.40;;;18.70;99.90;;;;;;4970409;28;20922;-66
2023/08/01 06:14:01;;;;;;;6.30;3.67;;;18.80;99.90;;;;;;4969031;28;20471;-65
2023/08/01 06:16:30;;;;;;;3.40;3.00;;;18.90;99.90;;;;;;4970595;28;20451;-65
2023/08/01 06:18:59;;;;;;;5.00;4.50;;;19.00;99.90;;;;;;4969879;28;20443;-66
2023/08/01 06:21:27;;;;;;;6.30;4.23;;;19.00;99.90;;;;;;4976320;28;20459;-66
2023/08/01 06:23:55;;;;;;;4.60;3.70;;;19.00;99.90;;;;;;4988754;28;20547;-64
2023/08/01 06:26:23;;;;;;;5.87;4.20;;;19.00;99.90;;;;;;4989429;28;20466;-65
2023/08/01 06:28:52;;;;;;;5.40;4.30;;;18.90;99.90;;;;;;4989938;28;20478;-66
2023/08/01 06:31:21;;;;;;;9.33;3.93;;;18.80;99.90;;;;;;4989622;28;20446;-66
2023/08/01 06:33:50;;;;;;;9.60;5.07;;;18.70;99.90;;;;;;4988728;28;20987;-67
2023/08/01 06:36:18;;;;;;;6.03;4.47;;;18.10;99.90;;;;;;4989860;28;20439;-66
2023/08/01 06:38:47;;;;;;;6.27;4.60;;;17.70;99.90;;;;;;4973415;28;20507;-66
2023/08/01 06:41:15;;;;;;;5.67;4.33;;;17.40;99.90;;;;;;4970253;28;20499;-65
2023/08/01 06:43:43;;;;;;;7.43;4.70;;;17.10;99.90;;;;;;4968320;28;20469;-65
2023/08/01 06:46:11;;;;;;;8.23;5.67;;;16.90;99.90;;;;;;4969932;28;20449;-65
2023/08/01 06:48:39;;;;;;;6.40;4.90;;;16.80;99.90;;;;;;4969856;28;20490;-66
2023/08/01 06:51:09;;;;;;;10.70;5.47;;;16.80;99.90;;;;;;4970326;28;20496;-66
2023/08/01 06:53:37;;;;;;;8.93;5.40;;;16.70;99.90;;;;;;4969877;28;20466;-66
2023/08/01 06:56:05;;;;;;;8.93;5.57;;;16.70;99.90;;;;;;4969577;28;20554;-66
2023/08/01 06:58:33;;;;;;;7.80;6.10;;;16.70;99.90;;;;;;4970244;28;20475;-66
2023/08/01 07:01:01;;;;;;;6.83;5.00;;;16.70;99.90;;;;;;4969882;28;20450;-64
2023/08/01 07:03:29;;;;;;;6.80;5.37;;;16.60;99.90;;;;;;4968867;28;20470;-67
2023/08/01 07:05:57;;;;;;;7.70;5.87;;;16.70;99.90;;;;;;4970363;28;20459;-67
2023/08/01 07:08:30;;;;;;;7.00;5.43;;;16.80;99.90;;;;;;4969492;28;20477;-65
2023/08/01 07:10:58;;;;;;;6.97;5.20;;;16.80;99.90;;;;;;4979148;28;20540;-66
2023/08/01 07:13:26;;;;;;;8.10;5.10;;;16.90;99.90;;;;;;4987061;28;20574;-65
2023/08/01 07:15:54;;;;;;;11.57;6.47;;;16.90;99.90;;;;;;4989057;28;20457;-65
2023/08/01 07:18:22;;;;;;;8.50;6.93;;;17.00;99.90;;;;;;4987866;28;20455;-65
2023/08/01 07:21:00;;;;;;;7.80;5.90;;;17.00;99.90;;;;;;4988159;28;20938;-65
2023/08/01 07:23:29;;;;;;;8.50;6.20;;;17.00;99.90;;;;;;4987352;28;20496;-64
2023/08/01 07:25:57;;;;;;;7.10;6.17;;;17.00;99.90;;;;;;4988750;28;20972;-67
2023/08/01 07:28:26;;;;;;;7.70;7.00;;;17.00;99.90;;;;;;4973086;28;20863;-65
2023/08/01 07:31:00;;;;;;;10.80;6.63;;;17.00;99.90;;;;;;4966637;28;20460;-66
2023/08/01 07:33:29;;;;;;;9.93;7.00;;;16.80;99.90;;;;;;4974984;28;20547;-65
2023/08/01 07:35:57;;;;;;;9.80;6.40;;;16.60;99.90;;;;;;4976707;28;20462;-65
2023/08/01 07:38:26;;;;;;;7.90;6.63;;;16.50;99.90;;;;;;4968647;28;20490;-66
2023/08/01 07:40:56;;;;;;;10.00;6.60;;;16.30;99.90;;;;;;4969238;28;20943;-65
2023/08/01 07:43:26;;;;;;;11.50;6.70;;;16.30;99.90;;;;;;4968935;28;20467;-67
2023/08/01 07:45:57;;;;;;;9.93;6.93;;;16.30;99.90;;;;;;4969740;28;20459;-67
2023/08/01 07:48:25;;;;;;;10.43;7.40;;;16.30;99.90;;;;;;4969223;28;20432;-69
2023/08/01 07:50:56;;;;;;;9.23;7.20;;;16.20;99.90;;;;;;4973615;28;20471;-67
2023/08/01 07:53:24;;;;;;;8.90;6.77;;;16.30;99.90;;;;;;4987062;28;20992;-69
2023/08/01 07:55:53;;;;;;;9.13;6.93;;;16.40;99.90;;;;;;4987458;28;20583;-67
2023/08/01 07:58:22;;;;;;;9.93;6.03;;;16.50;99.90;;;;;;4988173;28;20523;-67
2023/08/01 08:00:50;;;;;;;7.27;5.97;;;16.50;99.90;;;;;;4987969;28;20438;-68
2023/08/01 08:03:18;;;;;;;7.20;5.80;;;16.60;99.90;;;;;;4987076;28;20496;-72
2023/08/01 08:05:47;;;;;;;9.00;6.10;;;16.60;99.90;;;;;;4976369;28;20449;-66
2023/08/01 08:08:15;;;;;;;6.10;5.37;;;16.80;99.90;;;;;;4968739;28;21121;-68
2023/08/01 08:10:43;;;;;;;8.30;5.07;;;16.90;99.90;;;;;;4969332;28;20535;-67
2023/08/01 08:13:11;;;;;;;6.80;5.67;;;17.10;99.90;;;;;;4966521;28;20486;-69
2023/08/01 08:15:40;;;;;;;9.10;5.17;;;17.20;99.90;;;;;;4987047;28;20447;-67
2023/08/01 08:18:09;;;;;;;8.90;4.83;;;17.20;99.90;;;;;;4987452;28;20531;-68
2023/08/01 08:20:44;;;;;;;8.10;5.17;;;17.10;99.90;;;;;;4986504;28;20478;-67
2023/08/01 08:23:13;;;;;;;6.50;5.20;;;17.00;99.90;;;;;;4984762;28;20467;-65
2023/08/01 08:25:42;;;;;;;8.00;4.80;;;17.00;99.90;;;;;;4968635;28;20448;-67
2023/08/01 08:28:10;;;;;;;5.67;4.40;;;17.00;99.90;;;;;;4968515;28;20472;-67
2023/08/01 08:30:40;;;;;;;6.97;4.27;;;17.10;99.90;;;;;;4969169;28;21193;-64
2023/08/01 08:33:08;;;;;;;3.83;3.47;;;17.30;99.90;;;;;;4971037;28;20522;-65
2023/08/01 08:35:39;;;;;;;6.53;4.30;;;17.30;99.90;;;;;;4972570;28;20443;-65
2023/08/01 08:38:07;;;;;;;6.30;4.23;;;17.30;99.90;;;;;;4973150;28;20444;-65
2023/08/01 08:40:35;;;;;;;6.73;3.97;;;17.30;99.90;;;;;;4972265;28;20443;-65
2023/08/01 08:43:04;;;;;;;4.07;3.63;;;17.30;99.90;;;;;;4970834;28;20464;-65
2023/08/01 08:45:35;;;;;;;6.20;3.40;;;17.50;99.90;;;;;;4971573;28;20515;-66
2023/08/01 08:48:11;;;;;;;6.00;3.97;;;17.80;99.90;;;;;;4970063;28;20506;-65
2023/08/01 08:50:40;;;;;;;4.43;3.30;;;18.10;99.90;;;;;;4971935;28;20561;-66
2023/08/01 08:53:12;;;;;;;3.53;3.10;;;18.40;99.90;;;;;;4970335;28;20471;-66
2023/08/01 08:55:41;;;;;;;3.70;3.03;;;18.60;99.90;;;;;;4980826;28;20455;-69
2023/08/01 08:58:10;;;;;;;4.00;3.07;;;18.80;99.90;;;;;;4991796;28;21110;-68
2023/08/01 09:00:38;;;;;;;3.67;3.37;;;18.80;99.90;;;;;;4995965;28;20446;-69
2023/08/01 09:03:08;;;;;;;3.30;3.00;;;18.80;99.90;;;;;;4971245;28;20463;-68
2023/08/01 09:05:45;;;;;;;3.83;2.70;;;18.90;99.90;;;;;;4975454;28;20451;-70
2023/08/01 09:08:18;;;;;;;3.63;2.67;;;18.90;99.90;;;;;;4974637;28;20460;-67
2023/08/01 09:10:47;;;;;;;3.33;2.67;;;18.90;99.90;;;;;;5001204;28;20477;-68
2023/08/01 09:13:16;;;;;;;5.03;3.13;;;18.80;99.90;;;;;;4982336;28;20475;-69
2023/08/01 09:15:44;;;;;;;4.93;2.87;;;18.70;99.90;;;;;;4984248;28;20496;-65
2023/08/01 09:18:13;;;;;;;4.30;2.80;;;18.60;99.90;;;;;;4980342;28;20436;-68
2023/08/01 09:20:46;;;;;;;5.00;2.80;;;18.50;99.90;;;;;;4984101;28;21039;-67
2023/08/01 09:23:15;;;;;;;4.27;3.27;;;18.40;99.90;;;;;;4999147;28;20539;-66
2023/08/01 09:25:44;;;;;;;3.30;2.83;;;18.20;99.90;;;;;;4979317;28;20483;-67
2023/08/01 09:28:20;;;;;;;3.50;2.80;;;18.10;99.90;;;;;;4983198;28;20958;-65
2023/08/01 09:30:49;;;;;;;3.37;3.03;;;18.30;99.90;;;;;;4982888;28;20510;-64
2023/08/01 09:33:19;;;;;;;4.50;2.47;;;18.30;99.90;;;;;;4977218;28;20455;-64
2023/08/01 09:35:47;;;;;;;3.20;2.17;;;18.20;99.90;;;;;;4978494;28;20452;-67
2023/08/01 09:38:16;;;;;;;5.40;2.73;;;18.20;99.90;;;;;;4985847;28;20549;-65
2023/08/01 09:40:46;;;;;;;2.20;2.00;;;18.10;99.90;;;;;;4998137;28;20450;-64
2023/08/01 09:43:15;;;;;;;2.80;2.20;;;18.10;99.90;;;;;;4987488;28;20467;-65
2023/08/01 09:45:53;;;;;;;2.67;2.13;;;18.10;99.90;;;;;;4991061;28;20443;-63
2023/08/01 09:48:27;;;;;;;4.27;2.27;;;18.10;99.90;;;;;;4987231;28;20478;-64
2023/08/01 09:51:06;;;;;;;3.77;2.60;;;18.10;99.90;;;;;;4979517;28;20488;-67
2023/08/01 09:53:35;;;;;;;2.60;2.03;;;18.40;99.90;;;;;;4977010;28;20478;-66
2023/08/01 09:56:04;;;;;;;2.20;1.90;;;18.60;99.90;;;;;;4982552;28;20449;-65
2023/08/01 09:58:34;;;;;;;2.67;1.97;;;18.80;99.90;;;;;;4980041;28;20466;-67
2023/08/01 10:01:02;;;;;;;3.57;2.60;;;18.80;99.90;;;;;;5001019;28;20438;-66
2023/08/01 10:03:32;;;;;;;1.87;1.77;;;18.90;99.90;;;;;;4983019;28;20479;-67
2023/08/01 10:06:00;;;;;;;2.47;1.80;;;19.00;99.90;;;;;;4988076;28;20459;-65
2023/08/01 10:08:32;;;;;;;1.97;1.63;;;19.00;99.90;;;;;;4983000;28;21195;-67
2023/08/01 10:11:01;;;;;;;4.00;1.90;;;19.10;99.90;;;;;;4988329;28;21211;-65
2023/08/01 10:13:30;;;;;;;1.90;1.67;;;19.20;99.90;;;;;;4981655;28;21358;-65
2023/08/01 10:15:59;;;;;;;2.10;1.50;;;19.30;99.90;;;;;;4982697;28;20514;-67
2023/08/01 10:18:31;;;;;;;3.37;1.60;;;19.30;99.90;;;;;;4983026;28;20466;-66
2023/08/01 10:21:01;;;;;;;1.30;1.10;;;19.40;99.90;;;;;;4979433;28;20450;-66
2023/08/01 10:23:30;;;;;;;0.80;0.70;;;19.30;99.90;;;;;;4991086;28;20474;-66
2023/08/01 10:26:00;;;;;;;1.47;0.90;;;19.20;99.90;;;;;;4992929;28;20446;-65
2023/08/01 10:28:35;;;;;;;3.13;1.37;;;19.00;99.90;;;;;;4976858;28;20436;-63
2023/08/01 10:31:10;;;;;;;1.07;0.93;;;18.90;99.90;;;;;;4983190;28;20475;-68
2023/08/01 10:33:41;;;;;;;2.03;1.20;;;18.90;99.90;;;;;;4981823;28;20486;-68
2023/08/01 10:36:19;;;;;;;1.00;0.90;;;18.90;99.90;;;;;;4980761;28;20548;-65
2023/08/01 10:38:52;;;;;;;0.90;0.70;;;18.80;99.90;;;;;;4974545;28;20439;-65
2023/08/01 10:41:26;;;;;;;0.90;0.73;;;18.70;99.90;;;;;;4986293;28;20443;-68
2023/08/01 10:44:05;;;;;;;0.80;0.70;;;18.70;99.90;;;;;;4976130;28;20472;-67
2023/08/01 10:46:47;;;;;;;3.03;0.70;;;18.80;99.90;;;;;;4977427;28;20496;-66
2023/08/01 10:49:17;;;;;;;1.00;0.60;;;19.50;99.90;;;;;;4979443;28;21053;-66
2023/08/01 10:51:45;;;;;;;1.60;1.07;;;20.10;99.90;;;;;;4984735;28;20514;-65
2023/08/01 10:54:22;;;;;;;1.90;0.80;;;20.60;99.90;;;;;;4980147;28;20470;-64
2023/08/01 10:56:51;;;;;;;1.53;0.73;;;21.00;99.90;;;;;;4992899;28;20530;-60
2023/08/01 10:59:20;;;;;;;1.20;0.70;;;21.40;99.90;;;;;;5001006;28;20968;-68
2023/08/01 11:01:50;;;;;;;1.77;0.70;;;21.60;99.90;;;;;;4982852;28;20455;-66
2023/08/01 11:04:21;;;;;;;0.70;0.70;;;21.40;99.90;;;;;;4982350;28;21274;-65
2023/08/01 11:06:50;;;;;;;1.00;0.60;;;21.30;99.90;;;;;;4978623;28;20442;-66
2023/08/01 11:09:20;;;;;;;1.30;0.50;;;21.10;99.90;;;;;;4980757;28;20446;-66
2023/08/01 11:11:51;;;;;;;1.67;0.80;;;20.90;99.90;;;;;;4978589;28;20511;-66
2023/08/01 11:14:22;;;;;;;1.10;0.77;;;21.20;99.90;;;;;;4978404;28;20576;-63
2023/08/01 11:16:51;;;;;;;1.30;0.97;;;21.70;99.90;;;;;;4996153;28;20467;-67
2023/08/01 11:19:21;;;;;;;1.90;0.80;;;22.10;99.90;;;;;;4993914;28;20454;-65
2023/08/01 11:21:50;;;;;;;1.10;0.90;;;22.00;99.90;;;;;;5010401;28;20434;-66
2023/08/01 11:24:18;;;;;;;1.43;1.00;;;21.90;99.90;;;;;;5006059;28;20920;-66
2023/08/01 11:26:48;;;;;;;1.77;1.00;;;21.20;99.90;;;;;;4978266;28;20539;-66
2023/08/01 11:29:18;;;;;;;1.03;0.80;;;20.70;99.90;;;;;;4975400;28;20499;-66
2023/08/01 11:31:54;;;;;;;1.77;1.20;;;21.20;99.90;;;;;;4988155;28;20486;-64
2023/08/01 11:34:24;;;;;;;2.50;1.00;;;21.40;99.90;;;;;;4984432;28;20520;-66
2023/08/01 11:36:53;;;;;;;2.13;1.00;;;20.80;99.90;;;;;;4981188;28;20454;-66
2023/08/01 11:39:22;;;;;;;1.67;1.13;;;21.10;99.90;;;;;;4980081;28;20443;-66
2023/08/01 11:41:50;;;;;;;2.17;1.10;;;21.60;99.90;;;;;;4977602;28;20522;-67
2023/08/01 11:44:18;;;;;;;1.37;1.00;;;21.80;99.90;;;;;;4983338;28;20538;-68
2023/08/01 11:46:47;;;;;;;1.30;1.20;;;21.60;99.90;;;;;;4976772;28;20482;-67
2023/08/01 11:49:15;;;;;;;1.80;0.83;;;21.30;99.90;;;;;;4986391;28;20451;-65
2023/08/01 11:51:45;;;;;;;4.40;1.20;;;21.00;99.90;;;;;;4984676;28;20507;-65
2023/08/01 11:54:15;;;;;;;2.07;1.17;;;21.50;99.90;;;;;;4993643;28;20467;-67
2023/08/01 11:56:44;;;;;;;2.90;1.13;;;22.10;99.90;;;;;;4994235;28;20483;-73
2023/08/01 11:59:13;;;;;;;1.37;0.87;;;22.70;99.90;;;;;;4994804;28;20469;-68
2023/08/01 12:01:43;;;;;;;3.33;1.63;;;22.90;99.90;;;;;;4992781;28;20812;-66
2023/08/01 12:04:11;;;;;;;1.40;1.20;;;22.80;99.90;;;;;;4993716;28;20972;-65
2023/08/01 12:06:40;;;;;;;1.90;1.50;;;22.70;99.40;;;;;;4995537;28;20459;-65
2023/08/01 12:09:13;;;;;;;1.73;1.10;;;23.00;99.00;;;;;;5010754;28;20441;-64
2023/08/01 12:11:41;;;;;;;3.87;1.40;;;23.30;99.90;;;;;;4986444;28;20478;-68
2023/08/01 12:14:11;;;;;;;1.90;1.30;;;23.30;98.60;;;;;;4994008;28;20987;-64
2023/08/01 12:16:40;;;;;;;1.47;1.33;;;22.60;99.90;;;;;;4995634;28;20460;-68
2023/08/01 12:19:09;;;;;;;1.50;0.90;;;22.40;99.90;;;;;;4991664;28;20533;-67
2023/08/01 12:21:38;;;;;;;1.27;1.07;;;22.70;99.90;;;;;;4993766;28;20854;-62
2023/08/01 12:24:06;;;;;;;1.47;1.00;;;23.10;99.90;;;;;;4990589;28;20466;-64
2023/08/01 12:26:35;;;;;;;1.50;1.40;;;23.30;97.30;;;;;;5004100;28;20458;-65
2023/08/01 12:29:03;;;;;;;2.20;1.30;;;22.70;96.80;;;;;;4996021;28;20446;-66
2023/08/01 12:31:31;;;;;;;1.40;1.13;;;22.70;98.40;;;;;;4994422;28;20513;-66
2023/08/01 12:34:00;;;;;;;1.20;1.00;;;23.10;95.50;;;;;;4993801;28;20460;-65
2023/08/01 12:36:28;;;;;;;1.30;1.20;;;23.80;93.70;;;;;;4983843;28;20443;-64
2023/08/01 12:38:56;;;;;;;2.40;2.20;;;22.90;92.80;;;;;;4984149;28;20539;-65
2023/08/01 12:41:24;;;;;;;2.10;0.93;;;22.80;92.50;;;;;;4984091;28;21016;-65
2023/08/01 12:43:53;;;;;;;1.73;1.00;;;23.10;92.70;;;;;;4985147;28;20460;-64
2023/08/01 12:46:22;;;;;;;1.90;0.90;;;23.30;91.00;;;;;;4985625;28;20498;-65
2023/08/01 12:48:50;;;;;;;2.10;1.27;;;23.70;90.80;;;;;;4980012;28;21049;-64
2023/08/01 12:51:18;;;;;;;2.03;1.10;;;23.90;89.50;;;;;;4989836;28;20450;-68
2023/08/01 12:53:46;;;;;;;2.30;1.03;;;23.60;86.20;;;;;;4987841;28;20460;-66